Time;durP1;ratioP1;P1;durP2;ratioP2;P2;SDS_P1;SDS_P2;PMS_P1;PMS_P2;Temp;Humidity;BMP_temperature;BMP_pressure;BME280_temperature;BME280_humidity;BME280_pressure;Samples;Min_cycle;Max_cycle;Signal;HPM_P1;HPM_P2
2022/05/12 00:01:09;;;;;;;15.32;8.52;;;16.40;71.20;;;;;;5084196;28;20107;-68
2022/05/12 00:03:35;;;;;;;13.82;6.70;;;16.40;71.10;;;;;;5083300;28;20412;-68
2022/05/12 00:06:02;;;;;;;8.05;3.47;;;16.40;71.10;;;;;;5084394;28;20369;-68
2022/05/12 00:08:29;;;;;;;9.20;2.75;;;16.40;71.10;;;;;;5083084;28;20004;-68
2022/05/12 00:10:55;;;;;;;9.18;3.03;;;16.40;71.10;;;;;;5079683;28;20055;-69
2022/05/12 00:13:22;;;;;;;6.85;3.15;;;16.40;71.00;;;;;;5083720;28;20023;-69
2022/05/12 00:15:48;;;;;;;7.95;2.70;;;16.30;71.00;;;;;;5081324;28;20029;-68
2022/05/12 00:18:15;;;;;;;7.65;2.42;;;16.30;71.00;;;;;;5080900;28;20395;-68
2022/05/12 00:20:42;;;;;;;7.82;2.45;;;16.30;70.90;;;;;;5081983;28;20095;-68
2022/05/12 00:23:10;;;;;;;17.45;2.58;;;16.30;70.90;;;;;;5087660;28;20039;-69
2022/05/12 00:25:37;;;;;;;6.93;2.53;;;16.30;70.90;;;;;;5078798;28;20046;-69
2022/05/12 00:28:07;;;;;;;9.20;2.75;;;16.20;71.00;;;;;;5081723;28;20051;-68
2022/05/12 00:30:33;;;;;;;14.18;3.13;;;16.20;70.90;;;;;;5079763;28;20020;-68
2022/05/12 00:33:00;;;;;;;10.02;2.47;;;16.20;70.80;;;;;;5083104;28;20597;-69
2022/05/12 00:35:27;;;;;;;10.70;2.45;;;16.20;70.80;;;;;;5084007;28;20024;-67
2022/05/12 00:37:53;;;;;;;8.65;2.88;;;16.20;70.80;;;;;;5081720;28;20024;-66
2022/05/12 00:40:20;;;;;;;7.65;3.10;;;16.20;70.80;;;;;;5086758;28;20032;-69
2022/05/12 00:43:31;;;;;;;9.48;2.42;;;16.10;70.60;;;;;;5082338;28;20032;-68
2022/05/12 00:45:58;;;;;;;5.57;2.10;;;16.10;70.60;;;;;;5065481;28;20083;-68
2022/05/12 00:48:24;;;;;;;7.13;2.35;;;16.10;70.40;;;;;;5079008;28;20096;-68
2022/05/12 00:50:52;;;;;;;6.45;2.80;;;16.10;70.30;;;;;;5084860;28;20380;-69
2022/05/12 00:53:20;;;;;;;8.52;2.72;;;16.10;70.20;;;;;;5080488;28;20111;-69
2022/05/12 00:55:47;;;;;;;7.72;2.10;;;16.10;70.10;;;;;;5080126;28;20035;-69
2022/05/12 00:58:17;;;;;;;7.82;2.42;;;16.10;70.10;;;;;;5078871;28;20016;-69
2022/05/12 01:00:45;;;;;;;3.70;1.60;;;16.00;70.10;;;;;;5081528;28;20032;-68
2022/05/12 01:03:19;;;;;;;10.55;2.65;;;16.00;70.10;;;;;;5079228;28;20032;-67
2022/05/12 01:05:47;;;;;;;8.38;2.47;;;16.00;70.30;;;;;;5083143;28;20040;-67
2022/05/12 01:08:15;;;;;;;9.15;2.33;;;16.00;70.90;;;;;;5080937;28;20036;-68
2022/05/12 01:10:46;;;;;;;25.80;4.50;;;16.00;71.40;;;;;;5079766;28;20025;-67
2022/05/12 01:13:13;;;;;;;17.33;3.13;;;16.00;71.40;;;;;;5082474;28;20511;-64
2022/05/12 01:15:50;;;;;;;14.82;2.65;;;16.00;71.60;;;;;;5073988;28;20036;-65
2022/05/12 01:18:18;;;;;;;6.63;2.15;;;16.00;71.70;;;;;;5082294;28;20031;-65
2022/05/12 01:20:48;;;;;;;7.85;1.80;;;16.00;71.70;;;;;;5080876;28;20099;-64
2022/05/12 01:23:36;;;;;;;6.57;1.38;;;16.00;71.70;;;;;;5085681;28;20038;-64
2022/05/12 01:26:08;;;;;;;5.43;1.50;;;16.00;71.70;;;;;;5082799;28;20024;-68
2022/05/12 01:28:36;;;;;;;4.63;2.63;;;16.00;71.80;;;;;;5079400;28;20555;-64
2022/05/12 01:31:04;;;;;;;9.45;2.67;;;16.00;72.00;;;;;;5078822;28;20027;-64
2022/05/12 01:33:31;;;;;;;7.25;1.95;;;16.00;72.10;;;;;;5079390;28;20032;-69
2022/05/12 01:35:57;;;;;;;4.97;1.67;;;16.00;72.30;;;;;;5084182;28;20512;-68
2022/05/12 01:38:24;;;;;;;7.05;2.17;;;16.10;72.50;;;;;;5081009;28;20028;-68
2022/05/12 01:40:52;;;;;;;6.60;2.25;;;16.00;72.60;;;;;;5084439;28;21327;-69
2022/05/12 01:43:19;;;;;;;7.30;2.35;;;16.10;72.80;;;;;;5085658;28;20021;-66
2022/05/12 01:45:46;;;;;;;8.23;2.63;;;16.10;73.00;;;;;;5082656;28;20084;-67
2022/05/12 01:48:14;;;;;;;13.95;2.67;;;16.10;73.20;;;;;;5084414;28;20036;-67
2022/05/12 01:50:43;;;;;;;8.98;2.03;;;16.10;73.40;;;;;;5086591;28;20090;-67
2022/05/12 01:53:10;;;;;;;11.07;2.83;;;16.10;73.50;;;;;;5088098;28;20110;-67
2022/05/12 01:55:38;;;;;;;11.32;2.30;;;16.20;73.60;;;;;;5084155;28;20020;-69
2022/05/12 01:58:05;;;;;;;4.70;2.05;;;16.20;73.70;;;;;;5085456;28;20438;-69
2022/05/12 02:00:32;;;;;;;12.07;3.50;;;16.20;73.70;;;;;;5082362;28;20084;-67
2022/05/12 02:03:00;;;;;;;12.57;2.80;;;16.20;73.70;;;;;;5083726;28;21018;-67
2022/05/12 02:05:38;;;;;;;11.35;3.03;;;16.20;74.20;;;;;;5092485;28;20036;-67
2022/05/12 02:08:07;;;;;;;9.00;3.50;;;16.10;73.60;;;;;;5081677;28;20020;-67
2022/05/12 02:10:39;;;;;;;9.48;3.55;;;16.10;73.50;;;;;;5081380;28;20059;-66
2022/05/12 02:13:11;;;;;;;9.15;3.17;;;16.20;73.60;;;;;;5086881;28;20622;-65
2022/05/12 02:15:56;;;;;;;9.25;3.33;;;16.20;73.60;;;;;;5084466;28;20050;-66
2022/05/12 02:18:24;;;;;;;19.58;3.83;;;16.20;73.60;;;;;;5080323;28;20115;-67
2022/05/12 02:20:51;;;;;;;20.30;3.63;;;16.20;73.80;;;;;;5086443;28;20526;-66
2022/05/12 02:23:17;;;;;;;10.90;3.17;;;16.20;73.80;;;;;;5083500;28;20061;-68
2022/05/12 02:25:44;;;;;;;16.52;4.43;;;16.20;73.80;;;;;;5086777;28;20028;-65
2022/05/12 02:28:11;;;;;;;12.70;3.45;;;16.20;74.10;;;;;;5082171;28;20020;-65
2022/05/12 02:30:38;;;;;;;12.57;3.13;;;16.10;73.80;;;;;;5084419;28;20104;-66
2022/05/12 02:33:05;;;;;;;15.30;3.78;;;16.10;73.70;;;;;;5080392;28;20054;-66
2022/05/12 02:35:31;;;;;;;14.43;4.25;;;16.10;73.80;;;;;;5084853;28;20149;-69
2022/05/12 02:37:58;;;;;;;9.80;3.60;;;16.10;73.90;;;;;;5085065;28;20028;-65
2022/05/12 02:40:28;;;;;;;11.00;3.20;;;16.10;74.00;;;;;;5081587;28;20478;-68
2022/05/12 02:42:56;;;;;;;13.63;4.15;;;16.10;74.20;;;;;;5086107;28;20081;-66
2022/05/12 02:45:23;;;;;;;11.27;3.60;;;16.10;74.20;;;;;;5082313;28;20115;-68
2022/05/12 02:47:49;;;;;;;13.30;3.58;;;16.10;74.10;;;;;;5085138;28;20797;-66
2022/05/12 02:50:17;;;;;;;12.13;4.95;;;16.10;73.90;;;;;;5089341;28;20028;-66
2022/05/12 02:52:43;;;;;;;10.07;4.32;;;16.10;73.90;;;;;;5083278;28;20052;-66
2022/05/12 02:55:11;;;;;;;14.73;3.72;;;16.20;73.80;;;;;;5087503;28;20032;-70
2022/05/12 02:57:39;;;;;;;15.48;4.43;;;16.10;73.80;;;;;;5085903;28;20028;-69
2022/05/12 03:00:08;;;;;;;11.20;3.45;;;16.10;73.80;;;;;;5086190;28;20522;-68
2022/05/12 03:02:35;;;;;;;9.73;3.35;;;16.10;73.90;;;;;;5084270;28;20158;-69
2022/05/12 03:05:02;;;;;;;9.90;3.03;;;16.10;74.00;;;;;;5084185;28;20120;-68
2022/05/12 03:07:28;;;;;;;13.43;4.00;;;16.10;74.00;;;;;;5084146;28;20020;-67
2022/05/12 03:09:54;;;;;;;10.68;3.88;;;16.10;74.10;;;;;;5083804;28;20017;-67
2022/05/12 03:12:21;;;;;;;10.23;2.75;;;16.10;74.10;;;;;;5086291;28;20115;-69
2022/05/12 03:14:47;;;;;;;9.73;3.22;;;16.10;74.20;;;;;;5080245;28;20160;-69
2022/05/12 03:17:14;;;;;;;10.43;3.25;;;16.10;74.30;;;;;;5084195;28;20050;-69
2022/05/12 03:19:40;;;;;;;15.57;3.42;;;16.10;74.40;;;;;;5082629;28;20036;-68
2022/05/12 03:22:07;;;;;;;10.35;3.00;;;16.00;74.30;;;;;;5086081;28;20043;-70
2022/05/12 03:24:34;;;;;;;10.02;2.78;;;16.00;74.40;;;;;;5083062;28;20041;-67
2022/05/12 03:27:00;;;;;;;15.32;4.78;;;16.10;74.50;;;;;;5085187;28;20134;-68
2022/05/12 03:29:27;;;;;;;12.80;4.10;;;16.10;74.50;;;;;;5083242;28;20028;-68
2022/05/12 03:31:54;;;;;;;8.40;2.78;;;16.00;74.60;;;;;;5083250;28;20028;-68
2022/05/12 03:34:20;;;;;;;9.38;3.80;;;16.00;74.80;;;;;;5081867;28;20024;-66
2022/05/12 03:36:46;;;;;;;14.85;4.78;;;16.10;75.10;;;;;;5081042;28;20020;-70
2022/05/12 03:39:13;;;;;;;8.45;3.10;;;16.00;75.20;;;;;;5086113;28;20038;-69
2022/05/12 03:41:39;;;;;;;11.88;3.22;;;16.00;75.30;;;;;;5082599;28;20035;-69
2022/05/12 03:46:51;;;;;;;11.32;3.20;;;16.10;75.50;;;;;;5084001;28;20631;-69
2022/05/12 03:49:17;;;;;;;11.60;3.38;;;16.10;75.60;;;;;;5082734;28;20423;-69
2022/05/12 03:51:45;;;;;;;9.25;3.90;;;16.00;75.60;;;;;;5081006;28;20028;-68
2022/05/12 03:54:12;;;;;;;13.52;3.10;;;16.00;75.80;;;;;;5083411;28;20028;-69
2022/05/12 03:56:38;;;;;;;7.95;2.75;;;16.10;75.90;;;;;;5082259;28;20475;-69
2022/05/12 03:59:06;;;;;;;9.18;3.13;;;16.10;76.10;;;;;;5079436;28;20024;-67
2022/05/12 04:01:33;;;;;;;11.05;3.38;;;16.10;76.10;;;;;;5080303;28;20394;-67
2022/05/12 04:04:00;;;;;;;10.00;3.63;;;16.00;76.10;;;;;;5075963;28;20108;-69
2022/05/12 04:06:26;;;;;;;16.10;2.60;;;16.00;76.10;;;;;;5080152;28;20050;-70
2022/05/12 04:08:53;;;;;;;9.73;3.03;;;16.00;76.20;;;;;;5078594;28;20040;-70
2022/05/12 04:11:20;;;;;;;18.35;4.00;;;16.00;76.20;;;;;;5076549;28;20025;-72
2022/05/12 04:13:47;;;;;;;11.10;3.25;;;16.00;76.30;;;;;;5079754;28;20040;-72
2022/05/12 04:16:15;;;;;;;14.35;3.92;;;16.00;76.30;;;;;;5080716;28;20034;-66
2022/05/12 04:18:42;;;;;;;19.63;4.28;;;16.00;76.00;;;;;;5083753;28;20024;-70
2022/05/12 04:21:08;;;;;;;11.65;3.78;;;16.00;77.20;;;;;;5081354;28;20044;-70
2022/05/12 04:23:34;;;;;;;17.05;3.72;;;16.00;77.50;;;;;;5079870;28;20091;-67
2022/05/12 04:26:01;;;;;;;21.15;3.90;;;16.00;77.40;;;;;;5077115;28;20033;-70
2022/05/12 04:28:27;;;;;;;11.07;3.60;;;16.00;77.40;;;;;;5081505;28;20090;-68
2022/05/12 04:30:54;;;;;;;12.57;4.55;;;16.00;77.40;;;;;;5079878;28;20016;-68
2022/05/12 04:36:05;;;;;;;17.95;6.53;;;16.00;77.40;;;;;;5084924;28;20039;-69
2022/05/12 04:38:32;;;;;;;21.45;6.57;;;16.00;77.50;;;;;;5081885;28;20024;-69
2022/05/12 04:40:58;;;;;;;12.10;4.40;;;16.00;77.50;;;;;;5078226;28;20403;-68
2022/05/12 04:43:27;;;;;;;9.23;3.08;;;16.00;77.60;;;;;;5079697;28;20050;-68
2022/05/12 04:45:53;;;;;;;8.52;3.35;;;16.00;77.70;;;;;;5079471;28;20043;-69
2022/05/12 04:48:20;;;;;;;9.70;3.58;;;16.00;77.90;;;;;;5078149;28;20012;-68
2022/05/12 04:50:46;;;;;;;15.55;3.03;;;16.10;78.00;;;;;;5082450;28;20028;-68
2022/05/12 04:53:13;;;;;;;21.40;3.75;;;16.10;78.20;;;;;;5083505;28;20043;-68
2022/05/12 04:55:40;;;;;;;9.98;4.50;;;16.10;78.40;;;;;;5077523;28;20032;-69
2022/05/12 04:58:06;;;;;;;23.88;3.95;;;16.10;78.40;;;;;;5083824;28;20026;-70
2022/05/12 05:00:37;;;;;;;13.93;3.60;;;16.10;78.40;;;;;;5083928;28;20025;-70
2022/05/12 05:03:05;;;;;;;12.57;3.50;;;16.10;78.40;;;;;;5081865;28;20467;-68
2022/05/12 05:05:31;;;;;;;14.07;4.05;;;16.10;78.50;;;;;;5080154;28;20040;-69
2022/05/12 05:07:58;;;;;;;12.80;3.67;;;16.10;78.50;;;;;;5080178;28;20052;-70
2022/05/12 05:10:25;;;;;;;18.27;4.53;;;16.10;78.50;;;;;;5080997;28;20008;-68
2022/05/12 05:12:53;;;;;;;12.75;4.30;;;16.10;78.50;;;;;;5080649;28;20542;-70
2022/05/12 05:15:21;;;;;;;15.40;4.22;;;16.10;78.50;;;;;;5082400;28;20020;-68
2022/05/12 05:17:48;;;;;;;12.93;4.65;;;16.10;78.50;;;;;;5085474;28;20029;-70
2022/05/12 05:20:22;;;;;;;16.80;3.85;;;16.10;78.50;;;;;;5088115;28;20081;-70
2022/05/12 05:22:49;;;;;;;12.18;4.03;;;16.10;78.50;;;;;;5087730;28;20059;-67
2022/05/12 05:25:17;;;;;;;11.50;3.65;;;16.10;78.50;;;;;;5088945;28;20028;-69
2022/05/12 05:27:45;;;;;;;11.52;4.32;;;16.10;78.50;;;;;;5085703;28;20042;-70
2022/05/12 05:30:15;;;;;;;11.15;3.75;;;16.10;78.50;;;;;;5089077;28;20031;-69
2022/05/12 05:32:41;;;;;;;13.25;3.80;;;16.20;78.60;;;;;;5087754;28;20030;-70
2022/05/12 05:35:08;;;;;;;8.93;3.08;;;16.20;79.20;;;;;;5088823;28;20406;-68
2022/05/12 05:37:36;;;;;;;10.65;3.20;;;16.20;78.70;;;;;;5085798;28;20082;-67
2022/05/12 05:40:05;;;;;;;11.20;2.92;;;16.20;78.60;;;;;;5088646;28;20097;-70
2022/05/12 05:42:31;;;;;;;14.38;3.05;;;16.20;78.60;;;;;;5086272;28;20020;-69
2022/05/12 05:44:58;;;;;;;15.70;3.15;;;16.20;78.60;;;;;;5092062;28;20059;-70
2022/05/12 05:47:25;;;;;;;14.95;2.90;;;16.20;78.60;;;;;;5083748;28;20024;-69
2022/05/12 05:49:52;;;;;;;17.50;3.80;;;16.20;78.50;;;;;;5089634;28;20426;-69
2022/05/12 05:55:03;;;;;;;11.40;2.95;;;16.20;78.50;;;;;;5087949;28;20026;-69
2022/05/12 05:57:30;;;;;;;14.32;3.30;;;16.20;78.30;;;;;;5085746;28;20100;-66
2022/05/12 05:59:58;;;;;;;13.55;3.67;;;16.20;78.10;;;;;;5085263;28;20028;-69
2022/05/12 06:02:26;;;;;;;13.23;2.38;;;16.20;78.00;;;;;;5082572;28;20036;-69
2022/05/12 06:04:52;;;;;;;11.75;3.45;;;16.20;77.90;;;;;;5087824;28;20034;-69
2022/05/12 06:07:19;;;;;;;16.95;2.60;;;16.20;77.70;;;;;;5089818;28;20074;-70
2022/05/12 06:09:45;;;;;;;10.75;2.22;;;16.20;77.60;;;;;;5088729;28;20114;-70
2022/05/12 06:12:12;;;;;;;10.32;2.80;;;16.20;77.50;;;;;;5090250;28;20057;-69
2022/05/12 06:14:42;;;;;;;15.35;2.75;;;16.20;77.30;;;;;;5085843;28;20364;-69
2022/05/12 06:17:09;;;;;;;8.50;2.70;;;16.30;77.30;;;;;;5086117;28;20020;-69
2022/05/12 06:19:36;;;;;;;8.85;2.08;;;16.30;77.20;;;;;;5086804;28;20472;-68
2022/05/12 06:22:03;;;;;;;12.23;2.78;;;16.30;77.10;;;;;;5086931;28;20471;-69
2022/05/12 06:24:30;;;;;;;7.68;2.42;;;16.30;77.10;;;;;;5086209;28;20475;-68
2022/05/12 06:26:56;;;;;;;11.35;2.83;;;16.30;77.00;;;;;;5087732;28;20131;-70
2022/05/12 06:29:22;;;;;;;17.20;3.13;;;16.30;76.90;;;;;;5083544;28;20001;-69
2022/05/12 06:31:49;;;;;;;18.80;3.15;;;16.30;77.00;;;;;;5083860;28;20039;-70
2022/05/12 06:34:16;;;;;;;10.80;2.70;;;16.30;77.10;;;;;;5081869;28;20082;-70
2022/05/12 06:36:44;;;;;;;12.52;2.47;;;16.40;77.30;;;;;;5083300;28;20060;-69
2022/05/12 06:39:10;;;;;;;10.57;2.45;;;16.30;77.20;;;;;;5084619;28;20032;-67
2022/05/12 06:41:37;;;;;;;5.82;2.40;;;16.40;77.40;;;;;;5083145;28;20043;-67
2022/05/12 06:44:04;;;;;;;15.10;3.28;;;16.40;77.40;;;;;;5083670;28;20077;-69
2022/05/12 06:46:30;;;;;;;6.40;2.20;;;16.40;77.50;;;;;;5083256;28;20044;-66
2022/05/12 06:48:57;;;;;;;7.95;2.28;;;16.40;77.60;;;;;;5085644;28;20039;-66
2022/05/12 06:51:24;;;;;;;9.07;2.75;;;16.50;77.70;;;;;;5081467;28;20099;-69
2022/05/12 06:53:51;;;;;;;11.40;2.40;;;16.50;77.60;;;;;;5083833;28;20515;-69
2022/05/12 06:56:18;;;;;;;7.80;2.70;;;16.50;77.50;;;;;;5083967;28;20051;-66
2022/05/12 06:58:44;;;;;;;12.65;2.95;;;16.50;77.40;;;;;;5082512;28;20087;-69
2022/05/12 07:01:11;;;;;;;9.32;3.00;;;16.60;77.40;;;;;;5082749;28;20036;-69
2022/05/12 07:03:38;;;;;;;11.75;2.92;;;16.60;77.30;;;;;;5085460;28;20016;-66
2022/05/12 07:06:06;;;;;;;16.88;3.47;;;16.60;77.10;;;;;;5089027;28;20434;-70
2022/05/12 07:08:32;;;;;;;9.55;2.40;;;16.60;76.90;;;;;;5082320;28;20035;-68
2022/05/12 07:10:59;;;;;;;9.93;2.33;;;16.60;76.80;;;;;;5083004;28;20012;-66
2022/05/12 07:13:25;;;;;;;24.85;3.00;;;16.70;76.80;;;;;;5084757;28;20024;-71
2022/05/12 07:15:52;;;;;;;12.60;1.95;;;16.70;76.70;;;;;;5082970;28;20110;-66
2022/05/12 07:18:20;;;;;;;17.45;2.63;;;16.70;76.70;;;;;;5084589;28;20024;-70
2022/05/12 07:29:03;;;;;;;13.87;3.03;;;16.80;77.10;;;;;;5084393;28;20100;-67
2022/05/12 07:31:30;;;;;;;12.70;2.88;;;16.90;77.10;;;;;;5083175;28;20027;-69
2022/05/12 07:33:57;;;;;;;14.40;4.35;;;16.90;76.80;;;;;;5083023;28;20008;-67
2022/05/12 07:36:27;;;;;;;8.77;2.78;;;16.90;76.40;;;;;;5086970;28;20020;-69
2022/05/12 07:38:57;;;;;;;11.38;2.78;;;16.90;76.10;;;;;;5083437;28;20028;-68
2022/05/12 07:41:25;;;;;;;15.98;2.90;;;17.00;75.90;;;;;;5082854;28;20020;-70
2022/05/12 07:43:51;;;;;;;11.95;2.70;;;17.00;75.40;;;;;;5079239;28;20040;-70
2022/05/12 07:46:24;;;;;;;16.45;3.20;;;16.90;74.90;;;;;;5081247;28;20103;-71
2022/05/12 07:48:51;;;;;;;11.77;2.28;;;16.90;74.50;;;;;;5083030;28;20016;-70
2022/05/12 07:51:19;;;;;;;9.25;2.20;;;16.90;74.30;;;;;;5079559;28;20017;-69
2022/05/12 07:53:47;;;;;;;8.98;2.40;;;16.90;74.30;;;;;;5084783;28;20514;-70
2022/05/12 07:56:16;;;;;;;7.88;2.08;;;16.90;74.30;;;;;;5081666;28;20023;-71
2022/05/12 07:58:44;;;;;;;8.10;2.78;;;16.90;74.20;;;;;;5080884;28;20024;-70
2022/05/12 08:01:12;;;;;;;7.25;2.22;;;17.00;74.30;;;;;;5078699;28;20384;-70
2022/05/12 08:03:42;;;;;;;13.02;2.83;;;17.00;74.40;;;;;;5085109;28;20457;-71
2022/05/12 08:06:08;;;;;;;19.08;2.05;;;17.00;75.30;;;;;;5081402;28;20016;-67
2022/05/12 08:08:36;;;;;;;22.75;3.35;;;17.10;75.10;;;;;;5083440;28;20027;-71
2022/05/12 08:11:03;;;;;;;7.85;2.30;;;17.10;75.20;;;;;;5081252;28;20043;-68
2022/05/12 08:13:30;;;;;;;11.48;1.70;;;17.20;75.10;;;;;;5078673;28;20167;-70
2022/05/12 08:15:57;;;;;;;5.72;1.65;;;17.20;75.30;;;;;;5087253;28;20518;-68
2022/05/12 08:18:25;;;;;;;14.57;3.65;;;17.20;74.80;;;;;;5078741;28;20283;-69
2022/05/12 08:20:52;;;;;;;11.50;2.00;;;17.20;74.60;;;;;;5082175;28;20080;-70
2022/05/12 08:23:19;;;;;;;5.50;2.60;;;17.30;74.30;;;;;;5080773;28;20020;-70
2022/05/12 08:25:47;;;;;;;8.35;1.92;;;17.30;74.10;;;;;;5084775;28;20063;-70
2022/05/12 08:28:16;;;;;;;8.82;2.50;;;17.30;74.00;;;;;;5082381;28;20617;-71
2022/05/12 08:30:44;;;;;;;11.68;2.47;;;17.30;73.80;;;;;;5080118;28;20056;-67
2022/05/12 08:33:11;;;;;;;9.32;1.80;;;17.30;73.80;;;;;;5084013;28;21389;-71
2022/05/12 08:35:38;;;;;;;12.45;1.88;;;17.30;73.80;;;;;;5079030;28;20106;-72
2022/05/12 08:38:05;;;;;;;11.05;2.63;;;17.30;73.60;;;;;;5086133;28;20093;-71
2022/05/12 08:40:33;;;;;;;7.78;2.33;;;17.40;73.50;;;;;;5084434;28;20027;-71
2022/05/12 08:43:14;;;;;;;11.55;2.55;;;17.40;73.40;;;;;;5075968;28;20032;-71
2022/05/12 08:45:42;;;;;;;15.02;3.60;;;17.40;73.20;;;;;;5082208;28;20107;-70
2022/05/12 08:48:12;;;;;;;7.53;2.45;;;17.40;73.20;;;;;;5084023;28;20024;-70
2022/05/12 08:50:40;;;;;;;17.63;2.80;;;17.50;73.50;;;;;;5082106;28;20040;-71
2022/05/12 08:53:19;;;;;;;12.95;3.17;;;17.50;73.80;;;;;;5081132;28;20063;-71
2022/05/12 08:55:53;;;;;;;12.52;2.35;;;17.60;74.00;;;;;;5077738;28;20452;-71
2022/05/12 08:58:50;;;;;;;13.05;2.20;;;17.60;74.20;;;;;;5078373;28;20451;-70
2022/05/12 09:01:51;;;;;;;9.20;3.83;;;17.60;74.10;;;;;;5069233;28;20123;-68
2022/05/12 09:04:32;;;;;;;12.60;2.95;;;17.70;74.00;;;;;;5084892;28;20179;-70
2022/05/12 09:07:05;;;;;;;12.13;2.95;;;17.60;73.90;;;;;;5084982;28;20018;-68
2022/05/12 09:09:57;;;;;;;15.27;2.63;;;17.70;73.40;;;;;;5079342;28;20695;-69
2022/05/12 09:12:51;;;;;;;12.73;2.75;;;17.70;73.00;;;;;;5081746;28;20439;-66
2022/05/12 09:15:32;;;;;;;12.63;3.53;;;17.70;72.40;;;;;;5075553;28;20108;-70
2022/05/12 09:18:01;;;;;;;9.32;3.33;;;17.80;71.70;;;;;;5081540;28;20026;-67
2022/05/12 09:20:32;;;;;;;14.88;4.70;;;17.70;71.60;;;;;;5083658;28;20117;-70
2022/05/12 09:22:59;;;;;;;10.63;4.32;;;17.80;71.90;;;;;;5081716;28;20069;-70
2022/05/12 09:25:36;;;;;;;14.05;3.55;;;17.80;71.90;;;;;;5083486;28;20028;-70
2022/05/12 09:28:21;;;;;;;9.57;3.22;;;17.80;71.90;;;;;;5081279;28;20024;-71
2022/05/12 09:30:50;;;;;;;11.35;2.88;;;17.80;71.30;;;;;;5081636;28;20008;-70
2022/05/12 09:33:35;;;;;;;9.65;3.33;;;17.80;70.80;;;;;;5080844;28;20028;-67
2022/05/12 09:36:05;;;;;;;8.30;2.33;;;17.90;70.80;;;;;;5080681;28;20479;-70
2022/05/12 09:38:40;;;;;;;10.40;2.78;;;17.90;70.60;;;;;;5079581;28;20619;-70
2022/05/12 09:41:22;;;;;;;6.60;2.00;;;18.00;70.00;;;;;;5081287;28;20469;-70
2022/05/12 09:43:53;;;;;;;5.85;1.95;;;18.00;68.70;;;;;;5082187;28;20027;-70
2022/05/12 09:46:29;;;;;;;7.07;1.58;;;18.00;67.90;;;;;;5082368;28;20016;-70
2022/05/12 09:49:20;;;;;;;3.90;1.48;;;18.10;67.60;;;;;;5078509;28;20020;-70
2022/05/12 09:51:46;;;;;;;8.27;1.98;;;18.10;66.30;;;;;;5079885;28;20074;-70
2022/05/12 09:54:28;;;;;;;7.88;2.38;;;18.20;65.70;;;;;;5078395;28;20105;-70
2022/05/12 09:57:14;;;;;;;9.68;2.15;;;18.20;65.60;;;;;;5079979;28;20025;-70
2022/05/12 09:59:44;;;;;;;10.82;2.08;;;18.20;66.00;;;;;;5082166;28;20023;-69
2022/05/12 10:08:29;;;;;;;9.98;3.25;;;18.30;65.80;;;;;;5083659;28;20035;-70
2022/05/12 10:11:06;;;;;;;9.25;1.85;;;18.40;66.10;;;;;;5083136;28;20289;-70
2022/05/12 10:13:56;;;;;;;19.80;2.90;;;18.40;66.10;;;;;;5086630;28;20471;-71
2022/05/12 10:16:29;;;;;;;14.27;3.97;;;18.50;66.00;;;;;;5089249;28;20047;-71
2022/05/12 10:18:59;;;;;;;12.55;3.00;;;18.50;66.10;;;;;;5083618;28;20027;-70
2022/05/12 10:21:34;;;;;;;7.68;2.35;;;18.50;66.60;;;;;;5083492;28;20044;-70
2022/05/12 10:24:53;;;;;;;6.13;1.80;;;18.60;67.40;;;;;;5086622;28;20028;-67
2022/05/12 10:27:19;;;;;;;7.65;2.35;;;18.60;67.60;;;;;;5052919;28;20078;-67
2022/05/12 10:30:07;;;;;;;12.88;2.78;;;18.60;67.80;;;;;;5084841;28;20391;-69
2022/05/12 10:33:18;;;;;;;6.20;1.65;;;18.60;68.10;;;;;;5083014;28;20025;-66
2022/05/12 10:36:22;;;;;;;2.83;1.13;;;18.60;68.30;;;;;;5082013;28;20020;-70
2022/05/12 10:39:24;;;;;;;5.43;2.08;;;18.60;68.60;;;;;;5087739;28;20071;-66
2022/05/12 10:42:01;;;;;;;7.28;1.50;;;18.60;68.80;;;;;;5027098;28;20034;-70
2022/05/12 10:44:59;;;;;;;13.38;2.35;;;18.60;69.00;;;;;;5082896;28;20032;-67
2022/05/12 10:47:44;;;;;;;6.47;1.63;;;18.70;69.00;;;;;;5081306;28;20050;-70
2022/05/12 10:50:50;;;;;;;7.27;2.27;;;18.60;68.90;;;;;;5085977;28;20043;-68
2022/05/12 10:53:48;;;;;;;7.80;1.50;;;18.70;68.50;;;;;;5084936;28;20530;-69
2022/05/12 10:57:09;;;;;;;13.52;1.75;;;18.80;68.00;;;;;;5083297;28;20063;-66
2022/05/12 10:59:41;;;;;;;6.63;1.33;;;18.80;68.10;;;;;;5004810;28;21323;-69
2022/05/12 11:02:12;;;;;;;4.22;1.50;;;18.90;67.90;;;;;;5081286;28;20080;-66
2022/05/12 11:05:16;;;;;;;19.98;4.28;;;19.00;67.50;;;;;;5086108;28;20039;-69
2022/05/12 11:07:48;;;;;;;5.97;1.38;;;19.00;67.00;;;;;;5081120;28;20028;-71
2022/05/12 11:10:34;;;;;;;8.93;2.65;;;19.10;67.00;;;;;;5084321;28;20012;-70
2022/05/12 11:13:15;;;;;;;10.90;1.55;;;19.10;66.70;;;;;;5081288;28;20012;-65
2022/05/12 11:16:03;;;;;;;8.57;1.73;;;19.20;66.10;;;;;;5084950;28;20023;-68
2022/05/12 11:18:37;;;;;;;7.38;2.25;;;19.20;65.50;;;;;;5087236;28;20031;-71
2022/05/12 11:21:25;;;;;;;15.23;1.50;;;19.30;65.30;;;;;;5085721;28;20044;-71
2022/05/12 11:24:13;;;;;;;10.93;2.03;;;19.40;64.90;;;;;;5079508;28;20031;-70
2022/05/12 11:27:04;;;;;;;10.65;2.17;;;19.50;64.00;;;;;;5082717;28;20024;-70
2022/05/12 11:30:02;;;;;;;2.80;1.10;;;19.60;63.60;;;;;;5085370;28;20028;-70
2022/05/12 11:32:50;;;;;;;6.82;1.42;;;19.70;62.90;;;;;;5016285;28;20545;-71
2022/05/12 11:35:25;;;;;;;4.90;1.50;;;19.80;62.60;;;;;;5083439;28;20023;-68
2022/05/12 11:37:54;;;;;;;5.93;0.90;;;19.90;61.80;;;;;;5081106;28;20067;-71
2022/05/12 11:40:43;;;;;;;6.72;1.67;;;19.90;61.10;;;;;;5081576;28;20105;-70
2022/05/12 11:46:20;;;;;;;3.13;0.60;;;20.00;60.90;;;;;;5083763;28;20050;-70
2022/05/12 11:49:22;;;;;;;10.48;1.13;;;20.10;60.10;;;;;;5086432;28;20100;-70
2022/05/12 11:52:18;;;;;;;3.17;0.93;;;20.10;59.50;;;;;;5084782;28;20056;-69
2022/05/12 11:54:54;;;;;;;5.18;0.60;;;20.20;59.50;;;;;;5080755;28;20055;-70
2022/05/12 11:57:28;;;;;;;2.00;0.40;;;20.20;58.90;;;;;;5077648;28;20556;-69
2022/05/12 11:59:57;;;;;;;3.07;0.57;;;20.20;58.70;;;;;;5080206;28;20088;-71
2022/05/12 12:02:29;;;;;;;8.10;0.80;;;20.10;58.50;;;;;;5082436;28;20412;-71
2022/05/12 12:05:00;;;;;;;5.78;0.90;;;20.10;58.60;;;;;;5081638;28;20040;-70
2022/05/12 12:07:32;;;;;;;3.88;0.60;;;20.10;58.20;;;;;;5083883;28;20050;-67
2022/05/12 12:10:09;;;;;;;2.50;0.70;;;20.20;58.20;;;;;;5083895;28;20027;-67
2022/05/12 12:12:45;;;;;;;7.90;1.38;;;20.20;58.00;;;;;;5079329;28;20533;-70
2022/05/12 12:15:28;;;;;;;5.10;1.50;;;20.20;57.80;;;;;;5083799;28;20058;-69
2022/05/12 12:17:55;;;;;;;4.55;0.85;;;20.20;57.90;;;;;;5083077;28;20056;-68
2022/05/12 12:20:31;;;;;;;2.85;0.88;;;20.30;57.50;;;;;;5083259;28;20143;-69
2022/05/12 12:23:00;;;;;;;5.05;1.02;;;20.20;57.50;;;;;;5082857;28;20028;-69
2022/05/12 12:25:44;;;;;;;3.35;1.20;;;20.30;57.50;;;;;;5081600;28;20345;-69
2022/05/12 12:28:41;;;;;;;7.60;1.70;;;20.30;57.10;;;;;;5081398;28;20024;-68
2022/05/12 12:31:21;;;;;;;3.30;0.70;;;20.30;57.00;;;;;;5078992;28;20028;-68
2022/05/12 12:34:15;;;;;;;3.25;0.90;;;20.30;56.90;;;;;;5082728;28;20570;-68
2022/05/12 12:36:54;;;;;;;7.78;1.25;;;20.40;56.70;;;;;;5080322;28;20021;-70
2022/05/12 12:39:36;;;;;;;5.53;0.88;;;20.40;56.40;;;;;;5081447;28;20528;-69
2022/05/12 12:42:24;;;;;;;2.67;0.70;;;20.40;56.40;;;;;;5080823;28;20024;-69
2022/05/12 12:45:00;;;;;;;4.95;0.65;;;20.40;56.40;;;;;;5083479;28;20036;-69
2022/05/12 12:47:30;;;;;;;15.77;1.42;;;20.50;56.20;;;;;;5083974;28;20027;-68
2022/05/12 12:50:13;;;;;;;10.93;1.27;;;20.60;56.40;;;;;;5080856;28;20012;-68
2022/05/12 12:52:45;;;;;;;7.38;0.77;;;20.60;56.50;;;;;;5078798;28;20069;-68
2022/05/12 12:58:05;;;;;;;3.50;0.75;;;20.60;56.60;;;;;;5078981;28;20402;-69
2022/05/12 13:00:35;;;;;;;3.47;0.50;;;20.60;56.90;;;;;;5082527;28;20020;-69
2022/05/12 13:03:22;;;;;;;9.40;1.42;;;20.60;57.00;;;;;;5078426;28;20017;-66
2022/05/12 13:05:50;;;;;;;3.22;1.17;;;20.70;57.00;;;;;;5084109;28;20043;-69
2022/05/12 13:08:28;;;;;;;2.17;0.63;;;20.70;56.90;;;;;;5083625;28;20666;-69
2022/05/12 13:11:03;;;;;;;2.70;0.85;;;20.70;56.90;;;;;;5083394;28;20028;-66
2022/05/12 13:13:30;;;;;;;6.30;1.23;;;20.70;56.70;;;;;;5079838;28;20020;-70
2022/05/12 13:16:04;;;;;;;1.98;0.57;;;20.60;56.60;;;;;;5082071;28;20023;-70
2022/05/12 13:18:34;;;;;;;4.45;0.93;;;20.60;56.60;;;;;;5073153;28;20044;-67
2022/05/12 13:21:03;;;;;;;5.43;1.38;;;20.60;56.50;;;;;;5078751;28;20093;-70
2022/05/12 13:23:36;;;;;;;2.63;0.70;;;20.60;56.70;;;;;;5080724;28;20009;-68
2022/05/12 13:26:09;;;;;;;2.13;0.70;;;20.50;56.60;;;;;;5077286;28;20052;-70
2022/05/12 13:28:37;;;;;;;2.00;0.70;;;20.50;56.60;;;;;;5084589;28;20107;-70
2022/05/12 13:31:42;;;;;;;3.00;0.60;;;20.50;56.70;;;;;;5084867;28;20071;-69
2022/05/12 13:34:15;;;;;;;3.67;0.60;;;20.50;56.90;;;;;;5074348;28;20031;-68